Time;durP1;ratioP1;P1;durP2;ratioP2;P2;SDS_P1;SDS_P2;PMS_P1;PMS_P2;Temp;Humidity;BMP_temperature;BMP_pressure;BME280_temperature;BME280_humidity;BME280_pressure;Samples;Min_cycle;Max_cycle;Signal;HPM_P1;HPM_P2
2023/04/22 00:00:57;;;;;;;;;;;12.20;99.90;;;;;;4998483;28;19994;-75
2023/04/22 00:03:24;;;;;;;;;;;12.20;99.90;;;;;;5003490;28;20370;-75
2023/04/22 00:05:51;;;;;;;;;;;12.20;99.90;;;;;;4994895;28;19934;-75
2023/04/22 00:08:18;;;;;;;;;;;12.20;99.90;;;;;;5002067;28;20016;-75
2023/04/22 00:10:44;;;;;;;;;;;12.20;99.90;;;;;;4995044;28;19976;-75
2023/04/22 00:13:11;;;;;;;;;;;12.20;99.90;;;;;;4996355;28;19972;-75
2023/04/22 00:15:39;;;;;;;;;;;12.20;99.90;;;;;;4980360;28;19968;-75
2023/04/22 00:18:12;;;;;;;;;;;12.20;99.90;;;;;;4999468;28;19954;-75
2023/04/22 00:20:40;;;;;;;;;;;12.20;99.90;;;;;;4997596;28;19935;-75
2023/04/22 00:23:06;;;;;;;;;;;12.10;99.90;;;;;;4999303;28;20016;-75
2023/04/22 00:25:33;;;;;;;;;;;12.10;99.90;;;;;;4986521;28;19929;-76
2023/04/22 00:28:00;;;;;;;;;;;12.10;99.90;;;;;;4997963;28;19930;-75
2023/04/22 00:30:27;;;;;;;;;;;12.10;99.90;;;;;;4998117;28;19930;-75
2023/04/22 00:32:55;;;;;;;;;;;12.00;99.90;;;;;;5001239;28;19925;-76
2023/04/22 00:35:22;;;;;;;;;;;12.00;99.90;;;;;;5002040;28;19932;-76
2023/04/22 00:37:49;;;;;;;;;;;12.00;99.90;;;;;;5001019;28;19965;-75
2023/04/22 00:40:16;;;;;;;;;;;12.00;99.90;;;;;;5009302;28;19964;-75
2023/04/22 00:42:43;;;;;;;;;;;12.00;99.90;;;;;;5002758;28;19969;-75
2023/04/22 00:45:11;;;;;;;;;;;12.00;99.90;;;;;;5002491;28;19973;-76
2023/04/22 00:47:38;;;;;;;;;;;11.90;99.90;;;;;;5005803;28;19965;-75
2023/04/22 00:50:07;;;;;;;;;;;11.90;99.90;;;;;;5005770;28;19987;-75
2023/04/22 00:52:33;;;;;;;;;;;11.90;99.90;;;;;;4999080;28;19992;-75
2023/04/22 00:55:00;;;;;;;;;;;11.90;99.90;;;;;;4995625;28;19925;-75
2023/04/22 00:57:29;;;;;;;;;;;11.90;99.90;;;;;;4979975;28;20465;-75
2023/04/22 00:59:56;;;;;;;;;;;11.90;99.90;;;;;;4983942;28;20020;-75
2023/04/22 01:02:23;;;;;;;;;;;11.80;99.90;;;;;;4995764;28;19926;-76
2023/04/22 01:04:50;;;;;;;;;;;11.80;99.90;;;;;;4979282;28;19973;-75
2023/04/22 01:07:18;;;;;;;;;;;11.80;99.90;;;;;;5000417;28;20013;-75
2023/04/22 01:09:45;;;;;;;;;;;11.80;99.90;;;;;;4996788;28;20015;-75
2023/04/22 01:12:12;;;;;;;;;;;11.80;99.90;;;;;;4996747;28;19940;-75
2023/04/22 01:14:39;;;;;;;;;;;11.80;99.90;;;;;;4980337;28;19947;-75
2023/04/22 01:17:08;;;;;;;;;;;11.80;99.90;;;;;;4983398;28;19925;-76
2023/04/22 01:19:36;;;;;;;;;;;11.80;99.90;;;;;;4987790;28;21247;-76
2023/04/22 01:22:03;;;;;;;;;;;11.80;99.90;;;;;;4996634;28;19940;-74
2023/04/22 01:24:33;;;;;;;;;;;11.70;99.90;;;;;;4999772;28;20007;-74
2023/04/22 01:27:00;;;;;;;;;;;11.70;99.90;;;;;;5002886;28;19926;-75
2023/04/22 01:29:27;;;;;;;;;;;11.70;99.90;;;;;;4996679;28;20015;-74
2023/04/22 01:31:54;;;;;;;;;;;11.70;99.90;;;;;;4996167;28;20523;-75
2023/04/22 01:34:22;;;;;;;;;;;11.70;99.90;;;;;;5000435;28;19937;-75
2023/04/22 01:36:49;;;;;;;;;;;11.70;99.90;;;;;;5000965;28;19925;-76
2023/04/22 01:39:16;;;;;;;;;;;11.60;99.90;;;;;;4993762;28;20034;-75
2023/04/22 01:41:44;;;;;;;;;;;11.60;99.90;;;;;;4997513;28;19937;-75
2023/04/22 01:44:11;;;;;;;;;;;11.60;99.90;;;;;;4999106;28;20024;-75
2023/04/22 01:46:38;;;;;;;;;;;11.60;99.90;;;;;;4996679;28;19944;-75
2023/04/22 01:49:06;;;;;;;;;;;11.60;99.90;;;;;;4997852;28;20016;-75
2023/04/22 01:51:33;;;;;;;;;;;11.60;99.90;;;;;;4996677;28;19930;-75
2023/04/22 01:54:02;;;;;;;;;;;11.60;99.90;;;;;;4979886;28;20422;-75
2023/04/22 01:56:29;;;;;;;;;;;11.60;99.90;;;;;;4997472;28;19980;-75
2023/04/22 01:58:58;;;;;;;;;;;11.50;99.90;;;;;;5000066;28;19926;-74
2023/04/22 02:01:25;;;;;;;;;;;11.50;99.90;;;;;;4999136;28;19979;-75
2023/04/22 02:03:51;;;;;;;;;;;11.50;99.90;;;;;;4983643;28;19929;-75
2023/04/22 02:06:18;;;;;;;;;;;11.50;99.90;;;;;;4985330;28;19926;-76
2023/04/22 02:08:45;;;;;;;;;;;11.50;99.90;;;;;;4984998;28;20304;-75
2023/04/22 02:11:13;;;;;;;;;;;11.50;99.90;;;;;;4997343;28;20133;-76
2023/04/22 02:13:41;;;;;;;;;;;11.50;99.90;;;;;;4979646;28;19939;-75
2023/04/22 02:16:09;;;;;;;;;;;11.40;99.90;;;;;;4987516;28;19972;-76
2023/04/22 02:18:36;;;;;;;;;;;11.40;99.90;;;;;;4999021;28;19941;-76
2023/04/22 02:21:03;;;;;;;;;;;11.40;99.90;;;;;;4990774;28;20415;-75
2023/04/22 02:23:30;;;;;;;;;;;11.30;99.90;;;;;;4997881;28;19948;-74
2023/04/22 02:25:57;;;;;;;;;;;11.30;99.90;;;;;;4998251;28;20009;-75
2023/04/22 02:28:23;;;;;;;;;;;11.30;99.90;;;;;;4999084;28;20028;-75
2023/04/22 02:30:51;;;;;;;;;;;11.30;99.90;;;;;;4978356;28;20376;-76
2023/04/22 02:33:19;;;;;;;;;;;11.30;99.90;;;;;;4995910;28;19940;-75
2023/04/22 02:35:46;;;;;;;;;;;11.30;99.90;;;;;;4996810;28;20020;-75
2023/04/22 02:38:17;;;;;;;;;;;11.30;99.90;;;;;;4988349;28;20459;-75
2023/04/22 02:40:44;;;;;;;;;;;11.20;99.90;;;;;;4995070;28;19955;-75
2023/04/22 02:43:12;;;;;;;;;;;11.20;99.90;;;;;;4999345;28;19933;-75
2023/04/22 02:45:39;;;;;;;;;;;11.20;99.90;;;;;;4981723;28;19948;-75
2023/04/22 02:48:07;;;;;;;;;;;11.20;99.90;;;;;;4986412;28;19933;-75
2023/04/22 02:50:35;;;;;;;;;;;11.20;99.90;;;;;;5000132;28;19929;-75
2023/04/22 02:53:02;;;;;;;;;;;11.10;99.90;;;;;;4985370;28;20023;-75
2023/04/22 02:55:29;;;;;;;;;;;11.10;99.90;;;;;;4997880;28;19940;-76
2023/04/22 02:57:55;;;;;;;;;;;11.10;99.90;;;;;;4987148;28;20342;-75
2023/04/22 03:00:22;;;;;;;;;;;11.10;99.90;;;;;;5005402;28;19925;-76
2023/04/22 03:02:49;;;;;;;;;;;11.10;99.90;;;;;;4984697;28;19929;-75
2023/04/22 03:05:18;;;;;;;;;;;11.10;99.90;;;;;;4984414;28;19926;-75
2023/04/22 03:07:48;;;;;;;;;;;11.10;99.90;;;;;;5004074;28;20402;-75
2023/04/22 03:10:16;;;;;;;;;;;11.00;99.90;;;;;;4984582;28;19932;-75
2023/04/22 03:12:43;;;;;;;;;;;11.00;99.90;;;;;;4994738;28;19933;-75
2023/04/22 03:15:11;;;;;;;;;;;11.00;99.90;;;;;;4981220;28;19926;-75
2023/04/22 03:17:38;;;;;;;;;;;11.00;99.90;;;;;;5000469;28;19926;-75
2023/04/22 03:20:10;;;;;;;;;;;11.00;99.90;;;;;;4980638;28;20359;-75
2023/04/22 03:22:37;;;;;;;;;;;11.00;99.90;;;;;;4999111;28;20020;-74
2023/04/22 03:25:07;;;;;;;;;;;10.90;99.90;;;;;;4990639;28;19960;-75
2023/04/22 03:27:34;;;;;;;;;;;11.00;99.90;;;;;;4985334;28;19941;-75
2023/04/22 03:30:01;;;;;;;;;;;10.90;99.90;;;;;;4985379;28;20221;-76
2023/04/22 03:32:28;;;;;;;;;;;10.90;99.90;;;;;;4978771;28;19964;-74
2023/04/22 03:35:10;;;;;;;;;;;10.90;99.90;;;;;;4998488;28;20036;-75
2023/04/22 03:37:37;;;;;;;;;;;10.90;99.90;;;;;;4995516;28;19941;-74
2023/04/22 03:40:06;;;;;;;;;;;10.90;99.90;;;;;;4985397;28;19972;-76
2023/04/22 03:42:34;;;;;;;;;;;10.90;99.90;;;;;;4999555;28;19935;-77
2023/04/22 03:45:01;;;;;;;;;;;10.90;99.90;;;;;;5002278;28;19925;-74
2023/04/22 03:47:33;;;;;;;;;;;10.80;99.90;;;;;;5004273;28;20024;-75
2023/04/22 03:50:06;;;;;;;;;;;10.80;99.90;;;;;;4999953;28;20245;-75
2023/04/22 03:52:34;;;;;;;;;;;10.80;99.90;;;;;;4983828;28;19926;-75
2023/04/22 03:55:02;;;;;;;;;;;10.80;99.90;;;;;;4998859;28;19957;-75
2023/04/22 03:57:29;;;;;;;;;;;10.80;99.90;;;;;;4985887;28;19965;-75
2023/04/22 04:00:00;;;;;;;;;;;10.80;99.90;;;;;;4977842;28;20017;-75
2023/04/22 04:02:27;;;;;;;;;;;10.80;99.90;;;;;;4997322;28;20392;-75
2023/04/22 04:04:54;;;;;;;;;;;10.80;99.90;;;;;;4981978;28;20518;-75
2023/04/22 04:07:21;;;;;;;;;;;10.70;99.90;;;;;;4998533;28;20010;-76
2023/04/22 04:09:51;;;;;;;;;;;10.70;99.90;;;;;;5000719;28;19925;-75
2023/04/22 04:12:18;;;;;;;;;;;10.70;99.90;;;;;;5005534;28;19925;-77
2023/04/22 04:14:45;;;;;;;;;;;10.70;99.90;;;;;;4980011;28;20395;-77
2023/04/22 04:17:17;;;;;;;;;;;10.70;99.90;;;;;;5000169;28;19929;-74
2023/04/22 04:19:44;;;;;;;;;;;10.70;99.90;;;;;;4984737;28;19957;-75
2023/04/22 04:22:11;;;;;;;;;;;10.70;99.90;;;;;;4981261;28;19932;-76
2023/04/22 04:24:47;;;;;;;;;;;10.70;99.90;;;;;;4999428;28;19968;-75
2023/04/22 04:27:20;;;;;;;;;;;10.60;99.90;;;;;;4999608;28;19926;-75
2023/04/22 04:29:52;;;;;;;;;;;10.60;99.90;;;;;;4998305;28;19930;-75
2023/04/22 04:32:34;;;;;;;;;;;10.60;99.90;;;;;;5002012;28;20019;-75
2023/04/22 04:35:03;;;;;;;;;;;10.60;99.90;;;;;;4985788;28;19926;-75
2023/04/22 04:37:30;;;;;;;;;;;10.60;99.90;;;;;;5001505;28;20659;-76
2023/04/22 04:40:01;;;;;;;;;;;10.60;99.90;;;;;;4994257;28;19934;-75
2023/04/22 04:42:41;;;;;;;;;;;10.60;99.90;;;;;;5012198;28;19925;-75
2023/04/22 04:45:13;;;;;;;;;;;10.50;99.90;;;;;;5000590;28;19956;-75
2023/04/22 04:47:41;;;;;;;;;;;10.50;99.90;;;;;;4989842;28;19970;-75
2023/04/22 04:50:17;;;;;;;;;;;10.50;99.90;;;;;;4990841;28;19925;-75
2023/04/22 04:52:44;;;;;;;;;;;10.50;99.90;;;;;;4999201;28;20552;-75
2023/04/22 04:55:11;;;;;;;;;;;10.50;99.90;;;;;;4995747;28;19937;-77
2023/04/22 04:57:38;;;;;;;;;;;10.50;99.90;;;;;;5000995;28;19940;-76
2023/04/22 05:00:06;;;;;;;;;;;10.50;99.90;;;;;;4999107;28;19940;-74
2023/04/22 05:02:33;;;;;;;;;;;10.50;99.90;;;;;;4988342;28;19933;-74
2023/04/22 05:05:01;;;;;;;;;;;10.50;99.90;;;;;;4998724;28;20420;-76
2023/04/22 05:07:28;;;;;;;;;;;10.50;99.90;;;;;;4986567;28;19929;-76
2023/04/22 05:09:56;;;;;;;;;;;10.40;99.90;;;;;;5004542;28;19933;-75
2023/04/22 05:12:24;;;;;;;;;;;10.50;99.90;;;;;;4985202;28;19926;-74
2023/04/22 05:14:50;;;;;;;;;;;10.40;99.90;;;;;;5001651;28;20020;-75
2023/04/22 05:17:17;;;;;;;;;;;10.40;99.90;;;;;;5002053;28;19992;-75
2023/04/22 05:19:44;;;;;;;;;;;10.40;99.90;;;;;;4989872;28;19972;-75
2023/04/22 05:22:13;;;;;;;;;;;10.40;99.90;;;;;;5003630;28;19934;-75
2023/04/22 05:24:40;;;;;;;;;;;10.40;99.90;;;;;;4997584;28;19961;-75
2023/04/22 05:27:08;;;;;;;;;;;10.40;99.90;;;;;;5004723;28;20338;-74
2023/04/22 05:29:36;;;;;;;;;;;10.40;99.90;;;;;;4996961;28;20362;-75
2023/04/22 05:32:05;;;;;;;;;;;10.40;99.90;;;;;;4998828;28;20013;-76
2023/04/22 05:34:32;;;;;;;;;;;10.40;99.90;;;;;;4992339;28;19932;-76
2023/04/22 05:36:59;;;;;;;;;;;10.40;99.90;;;;;;4985513;28;20392;-76
2023/04/22 05:39:28;;;;;;;;;;;10.40;99.90;;;;;;4994985;28;19941;-75
2023/04/22 05:41:56;;;;;;;;;;;10.40;99.90;;;;;;4985585;28;19980;-79
2023/04/22 05:44:23;;;;;;;;;;;10.40;99.90;;;;;;4984379;28;20454;-77
2023/04/22 05:46:49;;;;;;;;;;;10.30;99.90;;;;;;4996154;28;19933;-78
2023/04/22 05:49:17;;;;;;;;;;;10.30;99.90;;;;;;5003903;28;20395;-79
2023/04/22 05:51:59;;;;;;;;;;;10.30;99.90;;;;;;5003450;28;19933;-79
2023/04/22 05:54:34;;;;;;;;;;;10.30;99.90;;;;;;4983540;28;19925;-76
2023/04/22 05:57:02;;;;;;;;;;;10.30;99.90;;;;;;4984157;28;20539;-78
2023/04/22 05:59:32;;;;;;;;;;;10.30;99.90;;;;;;4992742;28;20387;-75
2023/04/22 06:01:59;;;;;;;;;;;10.20;99.90;;;;;;5000525;28;19925;-76
2023/04/22 06:04:26;;;;;;;;;;;10.20;99.90;;;;;;4980964;28;19976;-77
2023/04/22 06:06:53;;;;;;;;;;;10.20;99.90;;;;;;4987897;28;19926;-76
2023/04/22 06:09:20;;;;;;;;;;;10.20;99.90;;;;;;4995353;28;19926;-77
2023/04/22 06:11:49;;;;;;;;;;;10.20;99.90;;;;;;4985543;28;19932;-76
2023/04/22 06:14:15;;;;;;;;;;;10.20;99.90;;;;;;4999489;28;20459;-76
2023/04/22 06:16:46;;;;;;;;;;;10.20;99.90;;;;;;4988863;28;19925;-77
2023/04/22 06:19:13;;;;;;;;;;;10.20;99.90;;;;;;4982904;28;19934;-78
2023/04/22 06:21:41;;;;;;;;;;;10.20;99.90;;;;;;4985794;28;19934;-77
2023/04/22 06:24:09;;;;;;;;;;;10.20;99.90;;;;;;4996755;28;20008;-77
2023/04/22 06:26:36;;;;;;;;;;;10.20;99.90;;;;;;4986065;28;19943;-76
2023/04/22 06:29:04;;;;;;;;;;;10.20;99.90;;;;;;4995045;28;19940;-79
2023/04/22 06:31:32;;;;;;;;;;;10.20;99.90;;;;;;4984474;28;20393;-76
2023/04/22 06:34:00;;;;;;;;;;;10.20;99.90;;;;;;5006045;28;20020;-76
2023/04/22 06:36:27;;;;;;;;;;;10.20;99.90;;;;;;4988122;28;19976;-77
2023/04/22 06:38:59;;;;;;;;;;;10.20;99.90;;;;;;5003789;28;20020;-79
2023/04/22 06:42:00;;;;;;;;;;;10.20;99.90;;;;;;4998085;28;20316;-80
2023/04/22 06:44:40;;;;;;;;;;;10.20;99.90;;;;;;5001131;28;19937;-78
2023/04/22 06:47:30;;;;;;;;;;;10.20;99.90;;;;;;4993320;28;19932;-78
2023/04/22 06:50:08;;;;;;;;;;;10.20;99.90;;;;;;4980486;28;20597;-79
2023/04/22 06:52:48;;;;;;;;;;;10.20;99.90;;;;;;5004772;28;20390;-81
2023/04/22 06:55:15;;;;;;;;;;;10.20;99.90;;;;;;4992763;28;20300;-80
2023/04/22 06:57:42;;;;;;;;;;;10.10;99.90;;;;;;5005440;28;19925;-79
2023/04/22 07:00:11;;;;;;;;;;;10.10;99.90;;;;;;4994238;28;19979;-79
2023/04/22 07:02:39;;;;;;;;;;;10.10;99.90;;;;;;5007470;28;19954;-79
2023/04/22 07:05:06;;;;;;;;;;;10.10;99.90;;;;;;5001039;28;20364;-79
2023/04/22 07:07:33;;;;;;;;;;;10.10;99.90;;;;;;4992175;28;19945;-78
2023/04/22 07:10:01;;;;;;;;;;;10.20;99.90;;;;;;5015096;28;19933;-79
2023/04/22 07:12:34;;;;;;;;;;;10.10;99.90;;;;;;5009896;28;19952;-79
2023/04/22 07:15:01;;;;;;;;;;;10.20;99.90;;;;;;5003133;28;20022;-79
2023/04/22 07:17:29;;;;;;;;;;;10.20;99.90;;;;;;4991214;28;20388;-78
2023/04/22 07:19:56;;;;;;;;;;;10.20;99.90;;;;;;5012049;28;20399;-79
2023/04/22 07:22:23;;;;;;;;;;;10.20;99.90;;;;;;5009938;28;20336;-78
2023/04/22 07:24:50;;;;;;;;;;;10.20;99.90;;;;;;5004428;28;20463;-78
2023/04/22 07:27:19;;;;;;;;;;;10.20;99.90;;;;;;5010787;28;20254;-78
2023/04/22 07:29:46;;;;;;;;;;;10.30;99.90;;;;;;5003877;28;20479;-80
2023/04/22 07:32:13;;;;;;;;;;;10.30;99.90;;;;;;5003616;28;19972;-79
2023/04/22 07:34:41;;;;;;;;;;;10.30;99.90;;;;;;5009716;28;19948;-78
2023/04/22 07:37:08;;;;;;;;;;;10.30;99.90;;;;;;5004811;28;19995;-79
2023/04/22 07:39:35;;;;;;;;;;;10.30;99.90;;;;;;4988775;28;20020;-79
2023/04/22 07:42:02;;;;;;;;;;;10.30;99.90;;;;;;5010181;28;20367;-79
2023/04/22 07:44:29;;;;;;;;;;;10.30;99.90;;;;;;5007417;28;20621;-78
2023/04/22 07:46:56;;;;;;;;;;;10.30;99.90;;;;;;4986224;28;19934;-78
2023/04/22 07:49:23;;;;;;;;;;;10.30;99.90;;;;;;5000383;28;20376;-78
2023/04/22 07:51:51;;;;;;;;;;;10.30;99.90;;;;;;5004765;28;19925;-78
2023/04/22 07:54:18;;;;;;;;;;;10.40;99.90;;;;;;5001969;28;20392;-78
2023/04/22 07:56:45;;;;;;;;;;;10.40;99.90;;;;;;5004401;28;20413;-78
2023/04/22 07:59:12;;;;;;;;;;;10.40;99.90;;;;;;5004339;28;20354;-78
2023/04/22 08:01:39;;;;;;;;;;;10.40;99.90;;;;;;5004151;28;19933;-81
2023/04/22 08:04:06;;;;;;;;;;;10.40;99.90;;;;;;5003639;28;19969;-79
2023/04/22 08:06:33;;;;;;;;;;;10.40;99.90;;;;;;4994828;28;19926;-78
2023/04/22 08:09:01;;;;;;;;;;;10.50;99.90;;;;;;4996916;28;20008;-78
2023/04/22 08:11:28;;;;;;;;;;;10.40;99.90;;;;;;5009447;28;19960;-79
2023/04/22 08:13:55;;;;;;;;;;;10.40;99.90;;;;;;5008652;28;19947;-78
2023/04/22 08:16:22;;;;;;;;;;;10.50;99.90;;;;;;4999880;28;19932;-79
2023/04/22 08:18:48;;;;;;;;;;;10.50;99.90;;;;;;5004957;28;19933;-78
2023/04/22 08:21:15;;;;;;;;;;;10.50;99.90;;;;;;5007450;28;20028;-78
2023/04/22 08:23:42;;;;;;;;;;;10.50;99.90;;;;;;5002653;28;19971;-79
2023/04/22 08:26:13;;;;;;;;;;;10.60;99.90;;;;;;5011908;28;19926;-78
2023/04/22 08:28:41;;;;;;;;;;;10.60;99.90;;;;;;5006898;28;19991;-79
2023/04/22 08:31:09;;;;;;;;;;;10.60;99.90;;;;;;5008163;28;19964;-80
2023/04/22 08:33:35;;;;;;;;;;;10.60;99.90;;;;;;5018636;28;19941;-79
2023/04/22 08:36:03;;;;;;;;;;;10.70;99.90;;;;;;5009175;28;20425;-78
2023/04/22 08:38:30;;;;;;;;;;;10.70;99.90;;;;;;5009406;28;19929;-78
2023/04/22 08:40:57;;;;;;;;;;;10.70;99.90;;;;;;5009745;28;19964;-79
2023/04/22 08:43:26;;;;;;;;;;;10.70;99.90;;;;;;5004546;28;20469;-79
2023/04/22 08:45:53;;;;;;;;;;;10.70;99.90;;;;;;5010180;28;19930;-78
2023/04/22 08:48:23;;;;;;;;;;;10.80;99.90;;;;;;5001675;28;19926;-78
2023/04/22 08:50:50;;;;;;;;;;;10.80;99.90;;;;;;5000477;28;19940;-78
2023/04/22 08:53:17;;;;;;;;;;;10.80;99.90;;;;;;5000676;28;19941;-79
2023/04/22 08:55:44;;;;;;;;;;;10.80;99.90;;;;;;5003607;28;19960;-78
2023/04/22 08:58:11;;;;;;;;;;;10.90;99.90;;;;;;4998696;28;20381;-78
2023/04/22 09:00:42;;;;;;;;;;;10.90;99.90;;;;;;4999935;28;19934;-79
2023/04/22 09:03:09;;;;;;;;;;;10.90;99.90;;;;;;5002667;28;19926;-77
2023/04/22 09:05:37;;;;;;;;;;;11.00;99.90;;;;;;4988847;28;19933;-78
2023/04/22 09:08:04;;;;;;;;;;;11.40;99.90;;;;;;5005660;28;20437;-77
2023/04/22 09:10:37;;;;;;;;;;;11.70;99.90;;;;;;5008529;28;19925;-77
2023/04/22 09:13:04;;;;;;;;;;;12.00;99.90;;;;;;4998705;28;19944;-76
2023/04/22 09:15:31;;;;;;;;;;;12.10;99.90;;;;;;5001944;28;19936;-76
2023/04/22 09:17:59;;;;;;;;;;;12.10;99.90;;;;;;4999155;28;19976;-76
2023/04/22 09:20:27;;;;;;;;;;;12.20;99.90;;;;;;5005497;28;20016;-77
2023/04/22 09:22:54;;;;;;;;;;;12.60;99.90;;;;;;5001973;28;19984;-77
2023/04/22 09:25:22;;;;;;;;;;;12.40;99.90;;;;;;5005068;28;19972;-78
2023/04/22 09:27:49;;;;;;;;;;;12.30;99.90;;;;;;5002809;28;19980;-77
2023/04/22 09:30:17;;;;;;;;;;;12.20;99.90;;;;;;4981003;28;19964;-76
2023/04/22 09:32:51;;;;;;;;;;;12.20;99.90;;;;;;4997811;28;19940;-77
2023/04/22 09:35:25;;;;;;;;;;;12.20;99.90;;;;;;5003135;28;20022;-76
2023/04/22 09:37:52;;;;;;;;;;;12.20;99.90;;;;;;5001804;28;19937;-76
2023/04/22 09:40:19;;;;;;;;;;;12.20;99.90;;;;;;4998932;28;19925;-75
2023/04/22 09:42:49;;;;;;;;;;;12.20;99.90;;;;;;4991312;28;20858;-75
2023/04/22 09:45:25;;;;;;;;;;;12.40;99.90;;;;;;5000376;28;20012;-76
2023/04/22 09:47:52;;;;;;;;;;;12.40;99.90;;;;;;4993733;28;20396;-76
2023/04/22 09:50:20;;;;;;;;;;;12.60;99.90;;;;;;4991707;28;19933;-76
2023/04/22 09:52:54;;;;;;;;;;;12.60;99.90;;;;;;5000811;28;19930;-76
2023/04/22 09:55:21;;;;;;;;;;;12.60;99.90;;;;;;4985147;28;19932;-75
2023/04/22 09:57:50;;;;;;;;;;;12.70;99.90;;;;;;5003237;28;20376;-76
2023/04/22 10:00:18;;;;;;;;;;;12.70;99.90;;;;;;4998706;28;19969;-76
2023/04/22 10:02:45;;;;;;;;;;;12.90;99.90;;;;;;5007553;28;19933;-76
2023/04/22 10:05:13;;;;;;;;;;;13.00;99.90;;;;;;4984689;28;19929;-75
2023/04/22 10:07:40;;;;;;;;;;;;;;;;;;4981761;28;19925;-77
2023/04/22 10:10:09;;;;;;;;;;;13.20;99.90;;;;;;5001512;28;20475;-75
2023/04/22 10:12:36;;;;;;;;;;;13.30;99.90;;;;;;5002608;28;19940;-75
2023/04/22 10:15:03;;;;;;;;;;;13.30;99.90;;;;;;5001369;28;19925;-76
2023/04/22 10:17:31;;;;;;;;;;;13.30;99.90;;;;;;4991366;28;19929;-76
2023/04/22 10:19:59;;;;;;;;;;;13.50;99.90;;;;;;5014687;28;20442;-75
2023/04/22 10:22:27;;;;;;;;;;;13.60;99.90;;;;;;4992287;28;20304;-75
2023/04/22 10:24:56;;;;;;;;;;;13.60;99.90;;;;;;4994947;28;20368;-76
2023/04/22 10:27:24;;;;;;;;;;;13.70;99.90;;;;;;5000718;28;19941;-75
2023/04/22 10:29:51;;;;;;;;;;;13.70;99.90;;;;;;4998673;28;19925;-76
2023/04/22 10:32:25;;;;;;;;;;;13.80;99.90;;;;;;5002092;28;20416;-75
2023/04/22 10:35:07;;;;;;;;;;;13.80;99.90;;;;;;5005261;28;19932;-75
2023/04/22 10:37:34;;;;;;;;;;;13.90;99.90;;;;;;5003206;28;19972;-76
2023/04/22 10:40:11;;;;;;;;;;;13.80;99.90;;;;;;5003696;28;19933;-76
2023/04/22 10:42:38;;;;;;;;;;;;;;;;;;5003938;28;20017;-75
2023/04/22 10:45:07;;;;;;;;;;;14.00;99.90;;;;;;4996997;28;19940;-76
2023/04/22 10:47:34;;;;;;;;;;;14.00;99.90;;;;;;4989222;28;19929;-76
2023/04/22 10:50:18;;;;;;;;;;;14.10;99.90;;;;;;4998019;28;19930;-76
2023/04/22 10:52:47;;;;;;;;;;;14.10;99.90;;;;;;4985629;28;20420;-76
2023/04/22 10:55:14;;;;;;;;;;;14.10;99.90;;;;;;5002769;28;19937;-76
2023/04/22 10:57:42;;;;;;;;;;;14.30;99.90;;;;;;4999750;28;19933;-75
2023/04/22 11:00:32;;;;;;;;;;;14.40;99.90;;;;;;5000956;28;20406;-73
2023/04/22 11:03:17;;;;;;;;;;;14.40;99.90;;;;;;5004446;28;19925;-76
2023/04/22 11:05:44;;;;;;;;;;;14.40;99.90;;;;;;4996421;28;19925;-76
2023/04/22 11:08:12;;;;;;;;;;;14.50;99.90;;;;;;5000068;28;20028;-75
2023/04/22 11:10:41;;;;;;;;;;;14.50;99.90;;;;;;4999429;28;19926;-75
2023/04/22 11:13:08;;;;;;;;;;;14.60;99.90;;;;;;5003136;28;20061;-76
2023/04/22 11:15:37;;;;;;;;;;;14.70;99.90;;;;;;4988308;28;20026;-75
2023/04/22 11:18:07;;;;;;;;;;;14.70;99.90;;;;;;5006662;28;19933;-75
2023/04/22 11:20:35;;;;;;;;;;;14.70;99.90;;;;;;4997196;28;19939;-75
2023/04/22 11:23:03;;;;;;;;;;;14.90;99.90;;;;;;4999426;28;19926;-76
2023/04/22 11:25:29;;;;;;;;;;;14.90;99.90;;;;;;5005985;28;19972;-75
2023/04/22 11:27:56;;;;;;;;;;;15.00;99.90;;;;;;5003668;28;20351;-76
2023/04/22 11:30:24;;;;;;;;;;;15.10;99.90;;;;;;4998904;28;19926;-76
2023/04/22 11:32:51;;;;;;;;;;;15.10;99.90;;;;;;5003949;28;19926;-75
2023/04/22 11:35:19;;;;;;;;;;;15.20;99.90;;;;;;5003567;28;20310;-75
2023/04/22 11:37:47;;;;;;;;;;;15.20;99.90;;;;;;5001612;28;20029;-73
2023/04/22 11:40:15;;;;;;;;;;;15.30;99.90;;;;;;4999731;28;19925;-75
2023/04/22 11:42:42;;;;;;;;;;;15.30;99.90;;;;;;5002271;28;20337;-75
2023/04/22 11:45:10;;;;;;;;;;;15.30;99.90;;;;;;5003592;28;19933;-75
2023/04/22 11:47:37;;;;;;;;;;;15.30;99.90;;;;;;5002887;28;19936;-75
2023/04/22 11:50:06;;;;;;;;;;;15.40;99.90;;;;;;5003044;28;20421;-75
2023/04/22 11:52:44;;;;;;;;;;;15.40;99.90;;;;;;5001093;28;19926;-76
2023/04/22 11:55:12;;;;;;;;;;;15.50;99.90;;;;;;4996967;28;19926;-76
2023/04/22 11:57:39;;;;;;;;;;;15.50;99.90;;;;;;5001763;28;19933;-75
2023/04/22 12:00:07;;;;;;;;;;;15.60;99.90;;;;;;5005116;28;19940;-74
2023/04/22 12:02:34;;;;;;;;;;;15.60;99.90;;;;;;5002278;28;20284;-76
2023/04/22 12:05:04;;;;;;;;;;;15.60;99.90;;;;;;5003054;28;20014;-75
2023/04/22 12:07:32;;;;;;;;;;;15.70;99.90;;;;;;4985137;28;20016;-77
2023/04/22 12:10:00;;;;;;;;;;;16.40;99.90;;;;;;4999299;28;19925;-78
2023/04/22 12:12:28;;;;;;;;;;;16.70;99.90;;;;;;5010425;28;19964;-78
2023/04/22 12:14:56;;;;;;;;;;;16.60;99.90;;;;;;5001428;28;19973;-79
2023/04/22 12:17:24;;;;;;;;;;;16.90;99.90;;;;;;5007125;28;19929;-78
2023/04/22 12:19:53;;;;;;;;;;;17.40;99.90;;;;;;5007135;28;20012;-76
2023/04/22 12:22:24;;;;;;;;;;;18.10;99.10;;;;;;5001513;28;19926;-79
2023/04/22 12:24:51;;;;;;;;;;;18.00;98.70;;;;;;5003858;28;19949;-78
2023/04/22 12:27:18;;;;;;;;;;;17.90;99.50;;;;;;4990485;28;19935;-78
2023/04/22 12:29:52;;;;;;;;;;;18.00;98.10;;;;;;5000846;28;19925;-79
2023/04/22 12:32:19;;;;;;;;;;;18.20;97.00;;;;;;5002370;28;19926;-78
2023/04/22 12:34:54;;;;;;;;;;;18.20;96.20;;;;;;5000055;28;19952;-77
2023/04/22 12:37:21;;;;;;;;;;;18.00;96.20;;;;;;4976354;28;19941;-77
2023/04/22 12:39:47;;;;;;;;;;;18.00;96.20;;;;;;5004448;28;20019;-77
2023/04/22 12:42:14;;;;;;;;;;;18.00;95.30;;;;;;4999418;28;20854;-77
2023/04/22 12:44:42;;;;;;;;;;;18.00;95.80;;;;;;5001974;28;19929;-76
2023/04/22 12:47:10;;;;;;;;;;;18.10;94.80;;;;;;5004426;28;19926;-77
2023/04/22 12:49:38;;;;;;;;;;;18.00;94.50;;;;;;4999662;28;20368;-76
2023/04/22 12:52:06;;;;;;;;;;;18.00;95.00;;;;;;5001333;28;19929;-78
2023/04/22 12:54:33;;;;;;;;;;;17.90;93.80;;;;;;5002532;28;20487;-75
2023/04/22 12:57:00;;;;;;;;;;;17.90;93.90;;;;;;5000125;28;20308;-76
2023/04/22 12:59:27;;;;;;;;;;;18.00;93.50;;;;;;5004018;28;19992;-77
2023/04/22 13:01:54;;;;;;;;;;;18.00;93.00;;;;;;4984022;28;20315;-77
2023/04/22 13:04:22;;;;;;;;;;;18.00;93.30;;;;;;5004215;28;19933;-77
2023/04/22 13:06:55;;;;;;;;;;;17.90;92.90;;;;;;5005241;28;19926;-76
2023/04/22 13:09:23;;;;;;;;;;;17.90;93.40;;;;;;5005073;28;20048;-77
2023/04/22 13:11:50;;;;;;;;;;;18.00;91.80;;;;;;4994644;28;19926;-76
2023/04/22 13:14:17;;;;;;;;;;;18.00;91.30;;;;;;4983844;28;19941;-75
2023/04/22 13:16:46;;;;;;;;;;;18.00;92.40;;;;;;5006596;28;19925;-76
2023/04/22 13:19:13;;;;;;;;;;;18.00;92.20;;;;;;4986600;28;19980;-78
2023/04/22 13:21:41;;;;;;;;;;;18.00;92.40;;;;;;4998687;28;19933;-78
2023/04/22 13:24:08;;;;;;;;;;;18.10;92.40;;;;;;4980225;28;20568;-78
2023/04/22 13:26:36;;;;;;;;;;;18.10;91.00;;;;;;4997212;28;20015;-77
2023/04/22 13:29:05;;;;;;;;;;;18.10;89.80;;;;;;5007432;28;19929;-78
2023/04/22 13:31:32;;;;;;;;;;;18.10;89.20;;;;;;5005393;28;19933;-78
2023/04/22 13:33:59;;;;;;;;;;;18.20;89.50;;;;;;4980188;28;19926;-77
2023/04/22 13:36:26;;;;;;;;;;;18.20;88.50;;;;;;5003655;28;19925;-78
2023/04/22 13:38:54;;;;;;;;;;;18.10;88.50;;;;;;5002274;28;20385;-78
2023/04/22 13:41:21;;;;;;;;;;;18.10;88.50;;;;;;4996396;28;20016;-79
2023/04/22 13:43:53;;;;;;;;;;;18.20;87.20;;;;;;4995743;28;19938;-79
2023/04/22 13:46:19;;;;;;;;;;;18.20;88.50;;;;;;4987468;28;19929;-76
2023/04/22 13:48:46;;;;;;;;;;;18.30;89.40;;;;;;4998690;28;19929;-78
2023/04/22 13:51:13;;;;;;;;;;;18.50;89.70;;;;;;4998253;28;19979;-77
2023/04/22 13:53:40;;;;;;;;;;;18.50;87.80;;;;;;4997573;28;20214;-77
2023/04/22 13:56:08;;;;;;;;;;;18.50;87.60;;;;;;4994971;28;20447;-77
2023/04/22 13:58:35;;;;;;;;;;;18.50;86.40;;;;;;4999115;28;20254;-77
2023/04/22 14:01:03;;;;;;;;;;;18.50;87.90;;;;;;4991666;28;20024;-77
2023/04/22 14:03:30;;;;;;;;;;;18.40;88.60;;;;;;4994865;28;19969;-77
2023/04/22 14:05:57;;;;;;;;;;;18.50;88.40;;;;;;4987284;28;19936;-77
2023/04/22 14:08:24;;;;;;;;;;;18.50;86.30;;;;;;4996507;28;20448;-77
2023/04/22 14:10:53;;;;;;;;;;;18.40;86.30;;;;;;4999058;28;20419;-78
2023/04/22 14:13:22;;;;;;;;;;;18.40;86.00;;;;;;4997822;28;20487;-76
2023/04/22 14:15:49;;;;;;;;;;;18.50;88.20;;;;;;4998023;28;20462;-75
2023/04/22 14:18:16;;;;;;;;;;;18.20;91.10;;;;;;4994918;28;20300;-77
2023/04/22 14:20:44;;;;;;;;;;;18.40;87.80;;;;;;4995600;28;19929;-77
2023/04/22 14:23:10;;;;;;;;;;;18.50;85.90;;;;;;4997399;28;19929;-76
2023/04/22 14:25:37;;;;;;;;;;;18.50;84.20;;;;;;4996219;28;19926;-76